Weather at Kiewit Airfield Hasselt

Public forecast

Using degrees Celsius for public forecast. Weather courtesy of forecast.io.

Closest aviation weather report (METAR) to Kiewit Airfield Hasselt

Closest report is Schaffen Airfield, 11.9 nm (22.1 km) W.

2024/05/25 17:55 (retrieved 40 minutes ago)

EBDT 251755Z AUTO 03003KT 9999 NCD 17/12 Q1016 BLU

Closest aviation forecast (TAF) to Kiewit Airfield Hasselt

Forecast is more than 12 hours old.

Closest forecast is Schaffen Airfield, 11.9 nm (22.1 km) W.

2024/05/23 19:12 (retrieved 2 days ago)

TAF EBDT 231541Z 2319/2407 23007KT 9999 FEW015 SCT025 PROB40 TEMPO 2319/2320 24008G18KT 6000 -SHRA FEW020TCU SCT030 BECMG 2320/2322 VRB03KT SCT030 BKN200